Details for Norwegian Air Shuttle at ENZV




Go Back


Latest METAR
Local Time

ENZV 232350Z 13006KT CAVOK 00/M05 Q1030

24/02/2018, 01:06:10

Description
Results
Norwegian Air Shuttle Logo
Number of Pilots based at ENZV
0 Pilots Based here
Number of Norwegian Air Shuttle Flights Departed from ENZV
1 Flights Departed
Number of Norwegian Air Shuttle Flights Arrived at ENZV
0 Flights Arrived
Number of Norwegian Air Shuttle Schedules Departing from ENZV
31 Schedules
Number of Norwegian Air Shuttle Schedules Arriving at ENZV
32 Schedules
Number of Norwegian Air Shuttle Schedules Departing from ENZV availible today
8 Schedules Today
Number of Norwegian Air Shuttle Schedules Arriving at ENZV availible today
8 Schedules Today
Average Landing Rate at ENZV
-306 fpm
Norwegian Air Shuttle Average Landing Rate at ENZV
0 fpm
Total Fuel Purchased at ENZV by Norwegian Air Shuttle
5,007.21 kgs / 11,038.90 lbs

Pilots Based at ENZV


Pilot ID
Pilot Name
Pilot Rank
No. of Flights
No. of Flying Hours
There are no pilots assigned to this hub!   Will you be the first?
Content